Natal, Brazil
Current Conditions -  °F | °C
As of 11:00 AM on Saturday 22 Nov 2014 (Local Time) from SBNT Reporting Station
Scattered Clouds Scattered Clouds  
Wind Chill: 84°   Ceiling: Unl
Heat Index: 86°   Visibility: 6mi
Dew Point: 64°   Wind: 18mph
Humidity: 51%   Direction: 120°ESE
Pressure: 29.91"   Gusts: NA
Location:  5.8°S, 35.22°W
Report Text: SBNT 221400Z 12016KT 9999 SCT027 29/18 Q1013
Loading
Personal Weather Stations






























Interactive Weather Map New forecast layout! Learn more

10-Day Weather Forecast

Advertisements
Track Severe Weather on mobile